| time (UTC) | temp C | wind direction | speed KPH | gust KPH | rain 1hr cm | rain 24hr cm | rain mn cm | humidity % | barometer mb |
| 20260507145024 | 14 | 206 | 9.7 | 17.7 | 0.00 | 0.00 | 0.00 | 54 | 799.0 |
| 20260507144523 | 14 | 217 | 9.7 | 17.7 | 0.00 | 0.00 | 0.00 | 53 | 814.3 |
| 20260507142951 | 13 | 221 | 6.4 | 17.7 | 0.00 | 0.00 | 0.00 | 56 | 824.9 |
| 20260507142450 | 13 | 218 | 6.4 | 17.7 | 0.00 | 0.00 | 0.00 | 58 | 833.2 |
| 20260507141949 | 13 | 215 | 6.4 | 17.7 | 0.00 | 0.00 | 0.00 | 60 | 826.8 |
| 20260507141449 | 13 | 220 | 4.8 | 17.7 | 0.00 | 0.00 | 0.00 | 63 | 824.1 |
| 20260507140948 | 12 | 207 | 6.4 | 17.7 | 0.00 | 0.00 | 0.00 | 66 | 832.2 |
| 20260507140447 | 12 | 203 | 4.8 | 17.7 | 0.00 | 0.00 | 0.00 | 68 | 819.9 |
| 20260507135945 | 12 | 254 | 3.2 | 17.7 | 0.00 | 0.00 | 0.00 | 68 | 858.1 |
| 20260507135445 | 12 | 232 | 6.4 | 17.7 | 0.00 | 0.00 | 0.00 | 67 | 826.2 |
| 20260507134944 | 11 | 214 | 4.8 | 17.7 | 0.00 | 0.00 | 0.00 | 69 | 810.7 |
| 20260507134443 | 11 | 222 | 4.8 | 17.7 | 0.00 | 0.00 | 0.00 | 70 | 815.9 |
| 20260507133944 | 11 | 199 | 3.2 | 17.7 | 0.00 | 0.00 | 0.00 | 72 | 821.7 |
| 20260507132928 | 10 | 232 | 3.2 | 17.7 | 0.00 | 0.00 | 0.00 | 73 | 847.8 |
| 20260507132428 | 10 | 219 | 3.2 | 17.7 | 0.00 | 0.00 | 0.00 | 75 | 857.1 |
| 20260507131928 | 10 | 222 | 3.2 | 17.7 | 0.00 | 0.00 | 0.00 | 77 | 883.1 |
| 20260507131428 | 10 | 222 | 3.2 | 17.7 | 0.00 | 0.00 | 0.00 | 79 | 937.1 |
| 20260507130413 | 8 | 265 | 3.2 | 17.7 | 0.00 | 0.00 | 0.00 | 82 | 1098.8 |
| 20260507125357 | 8 | 333 | 1.6 | 17.7 | 0.00 | 0.00 | 0.00 | 84 | 1153.1 |
| 20260507124857 | 7 | 333 | 1.6 | 17.7 | 0.00 | 0.00 | 0.00 | 85 | 1152.0 |
| 20260507124356 | 7 | 333 | 1.6 | 17.7 | 0.00 | 0.00 | 0.00 | 86 | 1148.1 |
| 20260507123856 | 7 | 334 | 1.6 | 17.7 | 0.00 | 0.00 | 0.00 | 86 | 1141.6 |
| 20260507123355 | 7 | 334 | 1.6 | 17.7 | 0.00 | 0.00 | 0.00 | 86 | 1129.5 |
| 20260507122855 | 6 | 334 | 1.6 | 17.7 | 0.00 | 0.00 | 0.00 | 87 | 1107.6 |
| 20260507122355 | 6 | 338 | 1.6 | 17.7 | 0.00 | 0.00 | 0.00 | 87 | 1067.5 |
| 20260507121854 | 6 | 342 | 1.6 | 17.7 | 0.00 | 0.00 | 0.00 | 88 | 976.9 |
| 20260507121353 | 6 | 353 | 1.6 | 17.7 | 0.00 | 0.00 | 0.00 | 88 | 801.4 |
| 20260507120852 | 6 | 0 | 1.6 | 17.7 | 0.00 | 0.00 | 0.00 | 88 | 420.9 |
| 20260507120351 | 5 | 0 | 0.0 | 17.7 | 0.00 | 0.00 | 0.00 | 88 | 152.1 |
| 20260507115850 | 5 | 0 | 0.0 | 17.7 | 0.00 | 0.00 | 0.00 | 89 | 152.2 |
| 20260507115350 | 5 | 0 | 0.0 | 17.7 | 0.00 | 0.00 | 0.00 | 89 | 152.1 |
| 20260507114849 | 5 | 0 | 0.0 | 17.7 | 0.00 | 0.00 | 0.00 | 89 | 152.4 |
| 20260507114348 | 5 | 0 | 0.0 | 17.7 | 0.00 | 0.00 | 0.00 | 89 | 152.5 |
| 20260507113331 | 5 | 0 | 0.0 | 17.7 | 0.00 | 0.00 | 0.00 | 89 | 152.2 |
| 20260507112830 | 5 | 0 | 0.0 | 17.7 | 0.00 | 0.00 | 0.00 | 89 | 152.4 |
| 20260507112329 | 5 | 0 | 0.0 | 17.7 | 0.00 | 0.00 | 0.00 | 90 | 152.2 |
| 20260507111828 | 5 | 0 | 0.0 | 17.7 | 0.00 | 0.00 | 0.00 | 90 | 152.0 |
| 20260507111327 | 5 | 0 | 0.0 | 17.7 | 0.00 | 0.00 | 0.00 | 90 | 151.7 |
| 20260507110826 | 5 | 0 | 0.0 | 17.7 | 0.00 | 0.00 | 0.00 | 90 | 151.7 |
| 20260507105809 | 5 | 0 | 0.0 | 17.7 | 0.00 | 0.00 | 0.00 | 90 | 151.6 |
| 20260507104752 | 5 | 0 | 0.0 | 17.7 | 0.00 | 0.00 | 0.00 | 89 | 151.9 |
| 20260507104251 | 5 | 0 | 0.0 | 17.7 | 0.00 | 0.00 | 0.00 | 89 | 152.0 |
| 20260507103750 | 5 | 0 | 0.0 | 17.7 | 0.00 | 0.00 | 0.00 | 89 | 151.8 |
| 20260507103250 | 5 | 0 | 0.0 | 17.7 | 0.00 | 0.00 | 0.00 | 89 | 151.8 |
| 20260507102749 | 5 | 0 | 0.0 | 17.7 | 0.00 | 0.00 | 0.00 | 89 | 151.7 |
| 20260507102249 | 5 | 0 | 0.0 | 17.7 | 0.00 | 0.00 | 0.00 | 88 | 151.8 |
| 20260507101748 | 5 | 0 | 0.0 | 17.7 | 0.00 | 0.00 | 0.00 | 88 | 152.2 |
| 20260507101247 | 5 | 0 | 0.0 | 17.7 | 0.00 | 0.00 | 0.00 | 88 | 152.3 |
| 20260507095200 | 5 | 0 | 0.0 | 17.7 | 0.00 | 0.00 | 0.00 | 89 | 152.3 |
| 20260507094144 | 5 | 0 | 0.0 | 17.7 | 0.00 | 0.00 | 0.00 | 89 | 152.1 |
| 20260507093643 | 5 | 0 | 0.0 | 17.7 | 0.00 | 0.00 | 0.00 | 90 | 151.8 |
| 20260507093143 | 5 | 0 | 0.0 | 17.7 | 0.00 | 0.00 | 0.00 | 90 | 151.7 |
| 20260507092643 | 5 | 0 | 0.0 | 17.7 | 0.00 | 0.00 | 0.00 | 90 | 151.9 |
| 20260507092141 | 5 | 0 | 0.0 | 17.7 | 0.00 | 0.00 | 0.00 | 90 | 152.0 |
| 20260507091641 | 5 | 0 | 0.0 | 17.7 | 0.00 | 0.00 | 0.00 | 89 | 152.0 |
| 20260507091140 | 6 | 0 | 0.0 | 17.7 | 0.00 | 0.00 | 0.00 | 89 | 152.0 |
| 20260507090639 | 6 | 0 | 0.0 | 17.7 | 0.00 | 0.00 | 0.00 | 89 | 152.0 |
| 20260507090138 | 6 | 0 | 0.0 | 17.7 | 0.00 | 0.00 | 0.00 | 89 | 151.8 |
| 20260507085637 | 6 | 0 | 0.0 | 17.7 | 0.00 | 0.00 | 0.00 | 89 | 151.6 |
| 20260507085136 | 6 | 0 | 0.0 | 17.7 | 0.00 | 0.00 | 0.00 | 88 | 151.8 |
| 20260507084120 | 6 | 0 | 0.0 | 17.7 | 0.00 | 0.00 | 0.00 | 88 | 152.1 |
| 20260507083619 | 6 | 0 | 0.0 | 17.7 | 0.00 | 0.00 | 0.00 | 88 | 152.1 |
| 20260507083119 | 6 | 0 | 0.0 | 17.7 | 0.00 | 0.00 | 0.00 | 88 | 152.3 |
| 20260507082618 | 6 | 0 | 0.0 | 17.7 | 0.00 | 0.00 | 0.00 | 89 | 152.3 |
| 20260507082118 | 6 | 0 | 0.0 | 17.7 | 0.00 | 0.00 | 0.00 | 89 | 152.0 |
| 20260507081617 | 6 | 0 | 1.6 | 17.7 | 0.00 | 0.00 | 0.00 | 89 | 152.0 |
| 20260507081116 | 6 | 0 | 0.0 | 17.7 | 0.00 | 0.00 | 0.00 | 89 | 152.0 |
| 20260507080616 | 6 | 0 | 0.0 | 17.7 | 0.00 | 0.00 | 0.00 | 89 | 151.8 |
| 20260507075559 | 6 | 0 | 0.0 | 17.7 | 0.00 | 0.00 | 0.00 | 88 | 151.8 |
| 20260507074544 | 6 | 0 | 1.6 | 17.7 | 0.00 | 0.00 | 0.00 | 88 | 151.5 |
| 20260507073528 | 6 | 0 | 0.0 | 17.7 | 0.00 | 0.00 | 0.00 | 89 | 151.7 |
| 20260507073028 | 6 | 0 | 0.0 | 17.7 | 0.00 | 0.00 | 0.00 | 89 | 151.8 |
| 20260507072528 | 6 | 0 | 0.0 | 17.7 | 0.00 | 0.00 | 0.00 | 89 | 151.8 |
| 20260507072027 | 6 | 0 | 0.0 | 17.7 | 0.00 | 0.00 | 0.00 | 89 | 152.0 |
| 20260507071010 | 6 | 0 | 0.0 | 17.7 | 0.00 | 0.00 | 0.00 | 89 | 153.0 |
| 20260507070509 | 6 | 0 | 0.0 | 17.7 | 0.00 | 0.00 | 0.00 | 89 | 152.8 |
| 20260507070011 | 6 | 0 | 0.0 | 17.7 | 0.00 | 0.00 | 0.00 | 89 | 152.5 |
| 20260507065507 | 6 | 0 | 0.0 | 17.7 | 0.00 | 0.00 | 0.00 | 88 | 152.3 |
| 20260507065007 | 6 | 0 | 0.0 | 17.7 | 0.00 | 0.00 | 0.00 | 88 | 152.2 |
| 20260507064507 | 6 | 0 | 0.0 | 17.7 | 0.00 | 0.00 | 0.00 | 88 | 152.0 |
| 20260507064006 | 6 | 0 | 0.0 | 17.7 | 0.00 | 0.00 | 0.00 | 88 | 152.0 |
| 20260507063506 | 6 | 0 | 0.0 | 17.7 | 0.00 | 0.00 | 0.00 | 88 | 151.9 |
| 20260507062459 | 6 | 0 | 0.0 | 17.7 | 0.00 | 0.00 | 0.00 | 87 | 152.1 |
| 20260507061959 | 6 | 0 | 0.0 | 17.7 | 0.00 | 0.00 | 0.00 | 87 | 152.1 |
| 20260507060943 | 6 | 0 | 0.0 | 17.7 | 0.00 | 0.00 | 0.00 | 86 | 152.1 |
| 20260507060442 | 6 | 0 | 0.0 | 17.7 | 0.00 | 0.00 | 0.00 | 86 | 152.2 |
| 20260507055425 | 7 | 0 | 0.0 | 17.7 | 0.00 | 0.00 | 0.00 | 86 | 152.2 |
| 20260507054924 | 7 | 0 | 0.0 | 17.7 | 0.00 | 0.00 | 0.00 | 86 | 152.1 |
| 20260507053908 | 7 | 0 | 0.0 | 17.7 | 0.00 | 0.00 | 0.00 | 85 | 152.2 |
| 20260507052850 | 7 | 0 | 0.0 | 17.7 | 0.00 | 0.00 | 0.00 | 85 | 152.2 |
| 20260507052349 | 7 | 0 | 0.0 | 17.7 | 0.00 | 0.00 | 0.00 | 85 | 152.2 |
| 20260507051848 | 7 | 0 | 0.0 | 17.7 | 0.00 | 0.00 | 0.00 | 85 | 152.0 |
| 20260507051347 | 7 | 0 | 0.0 | 17.7 | 0.00 | 0.00 | 0.00 | 84 | 152.1 |
| 20260507050846 | 7 | 0 | 0.0 | 17.7 | 0.00 | 0.00 | 0.00 | 84 | 152.1 |
| 20260507050345 | 7 | 0 | 0.0 | 17.7 | 0.00 | 0.00 | 0.00 | 84 | 152.2 |
| 20260507045844 | 7 | 0 | 0.0 | 17.7 | 0.00 | 0.00 | 0.03 | 84 | 152.3 |
| 20260507043755 | 7 | 0 | 0.0 | 17.7 | 0.00 | 0.00 | 0.03 | 84 | 152.2 |
| 20260507043254 | 7 | 0 | 0.0 | 17.7 | 0.00 | 0.00 | 0.03 | 83 | 152.3 |
| 20260507042753 | 7 | 0 | 0.0 | 17.7 | 0.00 | 0.00 | 0.03 | 83 | 152.3 |
| 20260507042252 | 7 | 0 | 0.0 | 17.7 | 0.00 | 0.00 | 0.03 | 83 | 152.3 |
| 20260507041751 | 7 | 0 | 0.0 | 17.7 | 0.00 | 0.00 | 0.03 | 83 | 152.1 |
| 20260507040735 | 8 | 0 | 0.0 | 17.7 | 0.00 | 0.00 | 0.03 | 81 | 152.5 |
| 20260507040235 | 8 | 0 | 0.0 | 17.7 | 0.00 | 0.00 | 0.03 | 79 | 152.6 |
| 20260507035734 | 8 | 0 | 0.0 | 17.7 | 0.00 | 0.00 | 0.03 | 78 | 152.4 |
| 20260507035233 | 8 | 0 | 0.0 | 17.7 | 0.00 | 0.00 | 0.03 | 79 | 152.4 |
| 20260507034216 | 8 | 0 | 0.0 | 17.7 | 0.00 | 0.00 | 0.03 | 79 | 152.5 |
| 20260507033715 | 8 | 0 | 0.0 | 17.7 | 0.00 | 0.00 | 0.03 | 80 | 152.4 |
| 20260507033214 | 8 | 0 | 0.0 | 17.7 | 0.00 | 0.00 | 0.03 | 79 | 152.4 |
| 20260507032713 | 8 | 0 | 0.0 | 17.7 | 0.00 | 0.00 | 0.03 | 78 | 152.3 |
| 20260507032212 | 8 | 0 | 0.0 | 17.7 | 0.00 | 0.00 | 0.03 | 77 | 152.1 |
| 20260507031155 | 8 | 0 | 0.0 | 17.7 | 0.00 | 0.00 | 0.03 | 76 | 152.7 |
| 20260507030654 | 8 | 0 | 0.0 | 17.7 | 0.00 | 0.00 | 0.03 | 77 | 152.7 |
| 20260507025637 | 9 | 0 | 0.0 | 17.7 | 0.00 | 0.00 | 0.03 | 76 | 152.6 |
| 20260507025136 | 9 | 0 | 0.0 | 17.7 | 0.00 | 0.00 | 0.03 | 75 | 152.4 |
| 20260507024636 | 10 | 0 | 0.0 | 17.7 | 0.00 | 0.00 | 0.03 | 74 | 152.6 |
| 20260507024135 | 10 | 0 | 0.0 | 17.7 | 0.00 | 0.00 | 0.03 | 72 | 152.6 |
| 20260507023634 | 10 | 0 | 0.0 | 17.7 | 0.00 | 0.00 | 0.03 | 70 | 152.8 |
| 20260507023133 | 10 | 0 | 0.0 | 17.7 | 0.00 | 0.00 | 0.03 | 69 | 153.2 |
| 20260507022633 | 10 | 0 | 0.0 | 17.7 | 0.00 | 0.00 | 0.03 | 67 | 153.3 |
| 20260507022132 | 10 | 0 | 0.0 | 17.7 | 0.00 | 0.00 | 0.03 | 68 | 153.3 |
| 20260507021631 | 10 | 0 | 0.0 | 17.7 | 0.00 | 0.00 | 0.03 | 68 | 153.4 |
| 20260507021131 | 10 | 0 | 0.0 | 17.7 | 0.00 | 0.00 | 0.03 | 65 | 154.1 |
| 20260507020631 | 11 | 0 | 0.0 | 17.7 | 0.00 | 0.00 | 0.03 | 65 | 154.9 |
| 20260507015058 | 11 | 1 | 0.0 | 17.7 | 0.00 | 0.00 | 0.03 | 60 | 158.1 |
| 20260507014557 | 11 | 1 | 0.0 | 17.7 | 0.00 | 0.00 | 0.03 | 60 | 158.5 |
| 20260507014057 | 12 | 1 | 0.0 | 17.7 | 0.00 | 0.00 | 0.03 | 60 | 159.0 |
| 20260507013557 | 12 | 1 | 0.0 | 17.7 | 0.00 | 0.00 | 0.03 | 61 | 159.8 |
| 20260507012540 | 12 | 1 | 0.0 | 17.7 | 0.00 | 0.00 | 0.03 | 58 | 162.7 |
| 20260507012039 | 12 | 1 | 0.0 | 17.7 | 0.00 | 0.00 | 0.03 | 58 | 165.6 |
| 20260507011538 | 13 | 1 | 0.0 | 17.7 | 0.00 | 0.00 | 0.03 | 56 | 170.9 |
| 20260507011038 | 13 | 1 | 0.0 | 17.7 | 0.00 | 0.00 | 0.03 | 55 | 180.1 |
| 20260507010539 | 13 | 1 | 0.0 | 17.7 | 0.00 | 0.00 | 0.03 | 55 | 197.6 |
| 20260507010037 | 13 | 1 | 0.0 | 17.7 | 0.00 | 0.00 | 0.03 | 52 | 230.0 |
| 20260507005536 | 13 | 1 | 0.0 | 17.7 | 0.00 | 0.00 | 0.03 | 52 | 291.8 |
| 20260507005035 | 13 | 1 | 0.0 | 17.7 | 0.00 | 0.00 | 0.03 | 51 | 411.8 |
| 20260507004534 | 13 | 0 | 0.0 | 17.7 | 0.00 | 0.00 | 0.03 | 50 | 652.1 |
| 20260507004033 | 14 | 0 | 0.0 | 17.7 | 0.00 | 0.00 | 0.03 | 50 | 1096.9 |
| 20260507003532 | 14 | 336 | 3.2 | 17.7 | 0.00 | 0.00 | 0.03 | 49 | 963.9 |
| 20260507003031 | 14 | 356 | 0.0 | 17.7 | 0.00 | 0.00 | 0.03 | 48 | 1056.7 |
| 20260507002015 | 14 | 0 | 4.8 | 17.7 | 0.00 | 0.00 | 0.03 | 46 | 626.9 |
| 20260507001514 | 14 | 8 | 3.2 | 17.7 | 0.00 | 0.00 | 0.03 | 47 | 556.4 |
| 20260507001014 | 15 | 9 | 3.2 | 17.7 | 0.00 | 0.00 | 0.03 | 45 | 449.5 |
| 20260507000513 | 15 | 13 | 1.6 | 17.7 | 0.00 | 0.00 | 0.03 | 43 | 569.9 |
| 20260507000012 | 15 | 347 | 3.2 | 17.7 | 0.00 | 0.00 | 0.03 | 46 | 941.8 |
| 20260506234956 | 15 | 5 | 4.8 | 17.7 | 0.00 | 0.00 | 0.03 | 44 | 669.9 |
| 20260506234455 | 15 | 6 | 4.8 | 17.7 | 0.00 | 0.00 | 0.03 | 43 | 524.5 |
| 20260506233954 | 15 | 42 | 4.8 | 17.7 | 0.00 | 0.00 | 0.03 | 44 | 476.1 |
| 20260506233453 | 15 | 14 | 3.2 | 17.7 | 0.00 | 0.00 | 0.03 | 43 | 617.4 |
| 20260506232952 | 15 | 39 | 6.4 | 17.7 | 0.00 | 0.00 | 0.03 | 44 | 692.2 |
| 20260506232451 | 15 | 359 | 4.8 | 17.7 | 0.00 | 0.00 | 0.03 | 44 | 804.9 |
| 20260506231950 | 15 | 357 | 3.2 | 17.7 | 0.00 | 0.00 | 0.03 | 44 | 928.9 |
| 20260506231449 | 16 | 353 | 3.2 | 17.7 | 0.00 | 0.00 | 0.03 | 44 | 794.8 |
| 20260506230948 | 16 | 338 | 3.2 | 17.7 | 0.00 | 0.00 | 0.03 | 44 | 679.4 |
| 20260506230447 | 16 | 13 | 1.6 | 17.7 | 0.00 | 0.00 | 0.03 | 43 | 586.5 |
| 20260506225946 | 16 | 5 | 3.2 | 17.7 | 0.00 | 0.00 | 0.03 | 43 | 798.0 |
| 20260506225445 | 16 | 344 | 3.2 | 17.7 | 0.00 | 0.00 | 0.03 | 44 | 805.8 |
| 20260506224944 | 16 | 347 | 3.2 | 17.7 | 0.00 | 0.00 | 0.03 | 44 | 669.3 |
| 20260506223927 | 16 | 359 | 3.2 | 17.7 | 0.00 | 0.00 | 0.03 | 45 | 491.5 |
| 20260506223426 | 16 | 37 | 4.8 | 17.7 | 0.00 | 0.00 | 0.03 | 43 | 363.2 |
| 20260506222925 | 16 | 22 | 4.8 | 17.7 | 0.00 | 0.00 | 0.03 | 43 | 372.2 |
| 20260506222424 | 16 | 25 | 4.8 | 17.7 | 0.00 | 0.00 | 0.03 | 44 | 413.4 |
| 20260506221924 | 16 | 19 | 4.8 | 17.7 | 0.00 | 0.00 | 0.03 | 43 | 483.1 |
| 20260506221423 | 16 | 22 | 4.8 | 17.7 | 0.00 | 0.00 | 0.03 | 43 | 389.4 |
| 20260506220922 | 16 | 16 | 3.2 | 17.7 | 0.00 | 0.00 | 0.03 | 45 | 458.5 |
| 20260506215905 | 16 | 31 | 8.0 | 17.7 | 0.00 | 0.00 | 0.03 | 43 | 694.3 |
| 20260506215405 | 16 | 323 | 3.2 | 19.3 | 0.00 | 0.00 | 0.03 | 45 | 843.1 |
| 20260506214904 | 16 | 351 | 3.2 | 19.3 | 0.00 | 0.00 | 0.03 | 44 | 720.5 |
| 20260506214403 | 16 | 352 | 4.8 | 19.3 | 0.00 | 0.00 | 0.03 | 44 | 762.2 |
| 20260506212830 | 16 | 0 | 6.4 | 19.3 | 0.00 | 0.00 | 0.03 | 44 | 841.4 |
| 20260506212329 | 16 | 357 | 6.4 | 19.3 | 0.00 | 0.00 | 0.03 | 43 | 769.5 |
| 20260506211828 | 16 | 1 | 4.8 | 19.3 | 0.00 | 0.00 | 0.03 | 44 | 649.3 |
| 20260506210811 | 16 | 351 | 4.8 | 19.3 | 0.00 | 0.00 | 0.03 | 44 | 648.8 |
| 20260506205754 | 16 | 27 | 6.4 | 19.3 | 0.00 | 0.00 | 0.03 | 43 | 433.2 |
| 20260506205253 | 17 | 40 | 8.0 | 19.3 | 0.00 | 0.00 | 0.03 | 41 | 516.1 |
| 20260506204752 | 17 | 355 | 4.8 | 17.7 | 0.00 | 0.00 | 0.03 | 44 | 671.8 |
| 20260506204251 | 17 | 359 | 6.4 | 17.7 | 0.00 | 0.00 | 0.03 | 46 | 659.8 |
| 20260506203235 | 17 | 28 | 4.8 | 17.7 | 0.00 | 0.00 | 0.03 | 39 | 542.5 |
| 20260506202735 | 17 | 350 | 8.0 | 17.7 | 0.00 | 0.00 | 0.03 | 42 | 693.2 |
| 20260506202234 | 17 | 31 | 3.2 | 17.7 | 0.00 | 0.00 | 0.03 | 42 | 534.3 |
| 20260506201733 | 18 | 1 | 4.8 | 17.7 | 0.00 | 0.00 | 0.03 | 41 | 658.7 |
| 20260506201232 | 18 | 6 | 4.8 | 17.7 | 0.00 | 0.00 | 0.03 | 41 | 718.5 |
| 20260506195659 | 17 | 353 | 4.8 | 17.7 | 0.00 | 0.00 | 0.03 | 41 | 603.5 |
| 20260506195158 | 17 | 15 | 3.2 | 17.7 | 0.00 | 0.00 | 0.03 | 41 | 517.0 |
| 20260506194657 | 17 | 32 | 4.8 | 19.3 | 0.00 | 0.00 | 0.03 | 38 | 490.1 |
| 20260506194156 | 18 | 18 | 6.4 | 19.3 | 0.00 | 0.00 | 0.03 | 39 | 545.7 |
| 20260506193149 | 18 | 25 | 6.4 | 17.7 | 0.00 | 0.00 | 0.03 | 38 | 576.5 |
| 20260506192648 | 18 | 354 | 4.8 | 17.7 | 0.00 | 0.00 | 0.03 | 40 | 644.3 |
| 20260506192147 | 18 | 317 | 4.8 | 17.7 | 0.00 | 0.00 | 0.03 | 40 | 673.4 |
| 20260506191646 | 18 | 15 | 4.8 | 17.7 | 0.00 | 0.00 | 0.03 | 46 | 632.6 |
| 20260506191145 | 18 | 17 | 1.6 | 17.7 | 0.00 | 0.00 | 0.03 | 44 | 606.8 |
| 20260506190645 | 18 | 46 | 8.0 | 17.7 | 0.00 | 0.00 | 0.03 | 43 | 652.0 |
| 20260506190143 | 18 | 3 | 4.8 | 17.7 | 0.00 | 0.00 | 0.03 | 44 | 641.9 |
| 20260506185643 | 18 | 21 | 4.8 | 17.7 | 0.00 | 0.00 | 0.03 | 43 | 519.3 |
| 20260506185142 | 18 | 13 | 6.4 | 17.7 | 0.00 | 0.00 | 0.03 | 44 | 576.3 |
| 20260506184640 | 18 | 2 | 6.4 | 17.7 | 0.00 | 0.00 | 0.03 | 41 | 680.6 |
| 20260506184139 | 18 | 348 | 6.4 | 17.7 | 0.00 | 0.00 | 0.03 | 42 | 684.6 |
| 20260506183639 | 18 | 338 | 1.6 | 17.7 | 0.00 | 0.00 | 0.03 | 45 | 663.9 |
| 20260506183137 | 18 | 347 | 1.6 | 17.7 | 0.00 | 0.00 | 0.03 | 44 | 878.4 |
| 20260506182120 | 17 | 32 | 4.8 | 17.7 | 0.00 | 0.00 | 0.03 | 46 | 590.7 |
| 20260506181620 | 17 | 46 | 9.7 | 19.3 | 0.00 | 0.00 | 0.03 | 41 | 558.3 |
| 20260506181118 | 18 | 7 | 8.0 | 19.3 | 0.00 | 0.00 | 0.03 | 41 | 744.8 |
| 20260506180617 | 17 | 354 | 8.0 | 19.3 | 0.00 | 0.00 | 0.03 | 44 | 797.2 |
| 20260506180117 | 17 | 356 | 4.8 | 19.3 | 0.00 | 0.00 | 0.03 | 46 | 719.0 |
| 20260506175615 | 17 | 7 | 4.8 | 19.3 | 0.00 | 0.00 | 0.03 | 45 | 725.1 |
| 20260506175115 | 17 | 330 | 6.4 | 19.3 | 0.00 | 0.00 | 0.03 | 45 | 795.8 |
| 20260506174614 | 16 | 329 | 4.8 | 19.3 | 0.00 | 0.00 | 0.03 | 44 | 688.5 |
| 20260506173558 | 16 | 28 | 4.8 | 19.3 | 0.00 | 0.00 | 0.03 | 49 | 485.6 |
| 20260506173057 | 16 | 33 | 4.8 | 19.3 | 0.00 | 0.00 | 0.03 | 46 | 639.4 |
| 20260506172556 | 16 | 355 | 4.8 | 19.3 | 0.00 | 0.00 | 0.03 | 48 | 718.0 |
| 20260506172055 | 16 | 355 | 6.4 | 19.3 | 0.00 | 0.00 | 0.03 | 48 | 710.7 |
| 20260506171555 | 16 | 356 | 6.4 | 22.5 | 0.00 | 0.00 | 0.03 | 50 | 634.5 |
| 20260506171053 | 16 | 9 | 6.4 | 22.5 | 0.00 | 0.00 | 0.03 | 49 | 673.2 |
| 20260506170553 | 16 | 16 | 4.8 | 17.7 | 0.00 | 0.00 | 0.03 | 50 | 731.4 |
| 20260506170052 | 16 | 32 | 3.2 | 17.7 | 0.00 | 0.00 | 0.03 | 52 | 626.1 |
| 20260506165036 | 15 | 7 | 6.4 | 17.7 | 0.00 | 0.00 | 0.03 | 51 | 587.7 |
| 20260506164536 | 15 | 5 | 6.4 | 17.7 | 0.00 | 0.00 | 0.03 | 56 | 665.5 |
| 20260506164035 | 15 | 18 | 3.2 | 17.7 | 0.00 | 0.00 | 0.03 | 58 | 595.8 |
| 20260506163020 | 15 | 22 | 3.2 | 17.7 | 0.00 | 0.00 | 0.03 | 56 | 485.1 |
| 20260506162519 | 15 | 18 | 3.2 | 17.7 | 0.00 | 0.00 | 0.03 | 58 | 660.3 |
| 20260506162019 | 14 | 337 | 3.2 | 17.7 | 0.00 | 0.00 | 0.03 | 57 | 812.0 |
| 20260506161518 | 14 | 9 | 3.2 | 17.7 | 0.00 | 0.00 | 0.03 | 55 | 911.4 |
| 20260506161018 | 14 | 346 | 6.4 | 17.7 | 0.00 | 0.00 | 0.03 | 62 | 969.7 |
| 20260506160517 | 14 | 331 | 3.2 | 17.7 | 0.00 | 0.00 | 0.03 | 62 | 916.1 |
| 20260506155501 | 14 | 4 | 3.2 | 17.7 | 0.00 | 0.00 | 0.03 | 63 | 665.7 |
| 20260506155001 | 14 | 9 | 3.2 | 17.7 | 0.00 | 0.00 | 0.03 | 62 | 627.8 |
| 20260506154501 | 14 | 5 | 6.4 | 17.7 | 0.00 | 0.00 | 0.03 | 59 | 758.7 |
| 20260506154001 | 13 | 357 | 1.6 | 17.7 | 0.00 | 0.00 | 0.03 | 62 | 865.7 |
| 20260506153501 | 13 | 353 | 3.2 | 17.7 | 0.00 | 0.00 | 0.03 | 64 | 913.2 |
| 20260506153001 | 13 | 323 | 1.6 | 17.7 | 0.00 | 0.00 | 0.03 | 65 | 871.7 |
| 20260506152501 | 13 | 11 | 6.4 | 17.7 | 0.00 | 0.00 | 0.03 | 64 | 684.5 |
| 20260506151446 | 13 | 349 | 4.8 | 17.7 | 0.00 | 0.00 | 0.03 | 62 | 782.4 |
| 20260506150945 | 13 | 325 | 3.2 | 17.7 | 0.00 | 0.00 | 0.03 | 61 | 713.1 |
| 20260506150445 | 13 | 335 | 3.2 | 17.7 | 0.00 | 0.00 | 0.03 | 67 | 594.0 |